sensor_id;sensor_type;location;lat;lon;timestamp;P1;durP1;ratioP1;P2;durP2;ratioP2
52136;SDS011;69622;49.570;10.986;2023-07-20T00:01:26;5.78;;;3.72;;
52136;SDS011;69622;49.570;10.986;2023-07-20T00:04:27;10.95;;;4.32;;
52136;SDS011;69622;49.570;10.986;2023-07-20T00:07:29;6.13;;;4.93;;
52136;SDS011;69622;49.570;10.986;2023-07-20T00:10:30;8.70;;;4.28;;
52136;SDS011;69622;49.570;10.986;2023-07-20T00:13:32;7.65;;;4.07;;
52136;SDS011;69622;49.570;10.986;2023-07-20T00:16:33;6.20;;;4.35;;
52136;SDS011;69622;49.570;10.986;2023-07-20T00:19:35;7.93;;;4.45;;
52136;SDS011;69622;49.570;10.986;2023-07-20T00:22:36;6.80;;;3.95;;
52136;SDS011;69622;49.570;10.986;2023-07-20T00:25:38;5.35;;;3.80;;
52136;SDS011;69622;49.570;10.986;2023-07-20T00:28:39;8.35;;;4.03;;
52136;SDS011;69622;49.570;10.986;2023-07-20T00:31:42;7.25;;;4.38;;
52136;SDS011;69622;49.570;10.986;2023-07-20T00:34:45;6.88;;;4.20;;
52136;SDS011;69622;49.570;10.986;2023-07-20T00:37:46;7.68;;;3.97;;
52136;SDS011;69622;49.570;10.986;2023-07-20T00:40:48;7.10;;;4.13;;
52136;SDS011;69622;49.570;10.986;2023-07-20T00:43:50;5.38;;;3.80;;
52136;SDS011;69622;49.570;10.986;2023-07-20T00:46:52;7.07;;;4.50;;
52136;SDS011;69622;49.570;10.986;2023-07-20T00:49:53;7.97;;;4.68;;
52136;SDS011;69622;49.570;10.986;2023-07-20T00:52:55;9.70;;;4.38;;
52136;SDS011;69622;49.570;10.986;2023-07-20T00:55:57;6.63;;;4.20;;
52136;SDS011;69622;49.570;10.986;2023-07-20T00:58:59;6.53;;;4.03;;
52136;SDS011;69622;49.570;10.986;2023-07-20T01:02:00;7.03;;;4.15;;
52136;SDS011;69622;49.570;10.986;2023-07-20T01:05:02;6.63;;;4.03;;
52136;SDS011;69622;49.570;10.986;2023-07-20T01:08:07;9.00;;;4.53;;
52136;SDS011;69622;49.570;10.986;2023-07-20T01:11:21;6.75;;;4.47;;
52136;SDS011;69622;49.570;10.986;2023-07-20T01:14:29;6.68;;;4.22;;
52136;SDS011;69622;49.570;10.986;2023-07-20T01:17:32;7.85;;;3.90;;
52136;SDS011;69622;49.570;10.986;2023-07-20T01:20:34;6.53;;;3.90;;
52136;SDS011;69622;49.570;10.986;2023-07-20T01:34:25;6.88;;;4.85;;
52136;SDS011;69622;49.570;10.986;2023-07-20T01:37:28;6.90;;;4.15;;
52136;SDS011;69622;49.570;10.986;2023-07-20T01:40:31;6.95;;;4.82;;
52136;SDS011;69622;49.570;10.986;2023-07-20T01:43:33;8.43;;;5.35;;
52136;SDS011;69622;49.570;10.986;2023-07-20T01:46:35;8.98;;;5.05;;
52136;SDS011;69622;49.570;10.986;2023-07-20T01:49:36;6.80;;;4.68;;
52136;SDS011;69622;49.570;10.986;2023-07-20T01:52:38;9.27;;;5.00;;
52136;SDS011;69622;49.570;10.986;2023-07-20T01:55:39;12.50;;;4.72;;
52136;SDS011;69622;49.570;10.986;2023-07-20T01:58:41;7.10;;;4.55;;
52136;SDS011;69622;49.570;10.986;2023-07-20T02:01:42;8.80;;;4.55;;
52136;SDS011;69622;49.570;10.986;2023-07-20T02:04:44;9.88;;;4.80;;
52136;SDS011;69622;49.570;10.986;2023-07-20T02:07:45;11.48;;;5.88;;
52136;SDS011;69622;49.570;10.986;2023-07-20T02:10:47;9.27;;;5.07;;
52136;SDS011;69622;49.570;10.986;2023-07-20T02:13:49;10.50;;;5.65;;
52136;SDS011;69622;49.570;10.986;2023-07-20T02:16:50;8.80;;;5.72;;
52136;SDS011;69622;49.570;10.986;2023-07-20T02:19:53;10.43;;;5.35;;
52136;SDS011;69622;49.570;10.986;2023-07-20T02:22:55;7.80;;;5.30;;
52136;SDS011;69622;49.570;10.986;2023-07-20T02:25:57;9.45;;;5.35;;
52136;SDS011;69622;49.570;10.986;2023-07-20T02:28:58;6.50;;;4.43;;
52136;SDS011;69622;49.570;10.986;2023-07-20T02:32:00;10.63;;;5.22;;
52136;SDS011;69622;49.570;10.986;2023-07-20T02:35:02;6.72;;;4.95;;
52136;SDS011;69622;49.570;10.986;2023-07-20T02:38:04;8.70;;;4.97;;
52136;SDS011;69622;49.570;10.986;2023-07-20T02:41:08;8.20;;;5.68;;
52136;SDS011;69622;49.570;10.986;2023-07-20T02:44:09;6.22;;;4.97;;
52136;SDS011;69622;49.570;10.986;2023-07-20T02:47:11;5.63;;;4.55;;
52136;SDS011;69622;49.570;10.986;2023-07-20T02:50:12;7.45;;;4.85;;
52136;SDS011;69622;49.570;10.986;2023-07-20T02:53:15;7.88;;;5.05;;
52136;SDS011;69622;49.570;10.986;2023-07-20T02:56:16;8.15;;;5.15;;
52136;SDS011;69622;49.570;10.986;2023-07-20T02:59:19;10.27;;;4.63;;
52136;SDS011;69622;49.570;10.986;2023-07-20T03:02:20;10.60;;;4.97;;
52136;SDS011;69622;49.570;10.986;2023-07-20T03:05:22;7.13;;;4.65;;
52136;SDS011;69622;49.570;10.986;2023-07-20T03:08:26;7.50;;;4.93;;
52136;SDS011;69622;49.570;10.986;2023-07-20T03:11:28;7.93;;;4.97;;
52136;SDS011;69622;49.570;10.986;2023-07-20T03:14:29;9.10;;;4.43;;
52136;SDS011;69622;49.570;10.986;2023-07-20T03:17:30;10.90;;;4.55;;
52136;SDS011;69622;49.570;10.986;2023-07-20T03:20:32;10.95;;;5.00;;
52136;SDS011;69622;49.570;10.986;2023-07-20T03:23:34;7.88;;;4.82;;
52136;SDS011;69622;49.570;10.986;2023-07-20T03:26:35;6.75;;;4.90;;
52136;SDS011;69622;49.570;10.986;2023-07-20T03:29:38;9.27;;;5.50;;
52136;SDS011;69622;49.570;10.986;2023-07-20T03:32:39;15.00;;;6.43;;
52136;SDS011;69622;49.570;10.986;2023-07-20T03:35:42;5.68;;;4.22;;
52136;SDS011;69622;49.570;10.986;2023-07-20T03:38:43;9.65;;;5.03;;
52136;SDS011;69622;49.570;10.986;2023-07-20T03:41:45;8.18;;;5.47;;
52136;SDS011;69622;49.570;10.986;2023-07-20T03:44:46;6.88;;;4.30;;
52136;SDS011;69622;49.570;10.986;2023-07-20T03:47:48;8.45;;;5.28;;
52136;SDS011;69622;49.570;10.986;2023-07-20T03:50:50;10.07;;;5.10;;
52136;SDS011;69622;49.570;10.986;2023-07-20T03:53:53;11.77;;;5.82;;
52136;SDS011;69622;49.570;10.986;2023-07-20T03:56:54;12.15;;;5.80;;
52136;SDS011;69622;49.570;10.986;2023-07-20T03:59:56;10.27;;;5.45;;
52136;SDS011;69622;49.570;10.986;2023-07-20T04:02:57;7.15;;;4.85;;
52136;SDS011;69622;49.570;10.986;2023-07-20T04:05:59;9.75;;;5.30;;
52136;SDS011;69622;49.570;10.986;2023-07-20T04:09:00;7.13;;;5.05;;
52136;SDS011;69622;49.570;10.986;2023-07-20T04:12:02;6.95;;;4.75;;
52136;SDS011;69622;49.570;10.986;2023-07-20T04:15:04;8.60;;;4.63;;
52136;SDS011;69622;49.570;10.986;2023-07-20T04:18:06;7.57;;;5.43;;
52136;SDS011;69622;49.570;10.986;2023-07-20T04:21:07;7.53;;;4.57;;
52136;SDS011;69622;49.570;10.986;2023-07-20T04:24:10;10.57;;;4.95;;
52136;SDS011;69622;49.570;10.986;2023-07-20T04:27:11;9.38;;;5.00;;
52136;SDS011;69622;49.570;10.986;2023-07-20T04:30:13;12.55;;;5.82;;
52136;SDS011;69622;49.570;10.986;2023-07-20T04:33:15;16.05;;;5.38;;
52136;SDS011;69622;49.570;10.986;2023-07-20T04:36:18;8.13;;;5.53;;
52136;SDS011;69622;49.570;10.986;2023-07-20T04:39:21;10.43;;;5.85;;
52136;SDS011;69622;49.570;10.986;2023-07-20T04:42:32;7.97;;;5.05;;
52136;SDS011;69622;49.570;10.986;2023-07-20T04:45:33;9.88;;;5.30;;
52136;SDS011;69622;49.570;10.986;2023-07-20T04:48:35;9.07;;;5.07;;
52136;SDS011;69622;49.570;10.986;2023-07-20T04:51:36;6.28;;;4.97;;
52136;SDS011;69622;49.570;10.986;2023-07-20T04:54:38;13.27;;;6.00;;
52136;SDS011;69622;49.570;10.986;2023-07-20T04:57:39;10.20;;;5.65;;
52136;SDS011;69622;49.570;10.986;2023-07-20T05:00:41;8.20;;;5.63;;
52136;SDS011;69622;49.570;10.986;2023-07-20T05:03:42;9.95;;;4.78;;
52136;SDS011;69622;49.570;10.986;2023-07-20T05:06:44;9.45;;;5.15;;
52136;SDS011;69622;49.570;10.986;2023-07-20T05:09:45;8.23;;;5.30;;
52136;SDS011;69622;49.570;10.986;2023-07-20T05:12:47;11.82;;;4.70;;
52136;SDS011;69622;49.570;10.986;2023-07-20T05:15:51;7.05;;;5.05;;
52136;SDS011;69622;49.570;10.986;2023-07-20T05:21:55;7.35;;;4.72;;
52136;SDS011;69622;49.570;10.986;2023-07-20T05:24:56;10.52;;;5.05;;
52136;SDS011;69622;49.570;10.986;2023-07-20T05:27:58;6.88;;;5.55;;
52136;SDS011;69622;49.570;10.986;2023-07-20T05:31:01;9.38;;;5.18;;
52136;SDS011;69622;49.570;10.986;2023-07-20T05:34:04;9.30;;;4.82;;
52136;SDS011;69622;49.570;10.986;2023-07-20T05:37:05;8.57;;;4.38;;
52136;SDS011;69622;49.570;10.986;2023-07-20T05:40:07;6.55;;;4.65;;
52136;SDS011;69622;49.570;10.986;2023-07-20T05:43:09;8.32;;;4.20;;
52136;SDS011;69622;49.570;10.986;2023-07-20T05:46:11;8.68;;;4.50;;
52136;SDS011;69622;49.570;10.986;2023-07-20T05:49:13;9.25;;;4.80;;
52136;SDS011;69622;49.570;10.986;2023-07-20T05:52:14;5.60;;;4.57;;
52136;SDS011;69622;49.570;10.986;2023-07-20T05:55:16;13.13;;;5.22;;
52136;SDS011;69622;49.570;10.986;2023-07-20T05:58:18;11.52;;;4.10;;
52136;SDS011;69622;49.570;10.986;2023-07-20T06:01:20;13.80;;;4.65;;
52136;SDS011;69622;49.570;10.986;2023-07-20T06:04:21;5.68;;;3.92;;
52136;SDS011;69622;49.570;10.986;2023-07-20T06:07:23;9.38;;;4.07;;
52136;SDS011;69622;49.570;10.986;2023-07-20T06:10:24;5.88;;;4.10;;
52136;SDS011;69622;49.570;10.986;2023-07-20T06:13:26;9.60;;;4.35;;
52136;SDS011;69622;49.570;10.986;2023-07-20T06:16:27;9.05;;;4.10;;
52136;SDS011;69622;49.570;10.986;2023-07-20T06:19:29;7.93;;;3.83;;
52136;SDS011;69622;49.570;10.986;2023-07-20T06:22:30;10.77;;;5.18;;
52136;SDS011;69622;49.570;10.986;2023-07-20T06:25:32;8.65;;;4.32;;
52136;SDS011;69622;49.570;10.986;2023-07-20T06:28:33;7.85;;;4.40;;
52136;SDS011;69622;49.570;10.986;2023-07-20T06:31:35;7.75;;;4.07;;
52136;SDS011;69622;49.570;10.986;2023-07-20T06:34:37;10.82;;;4.30;;
52136;SDS011;69622;49.570;10.986;2023-07-20T06:37:39;9.10;;;4.60;;
52136;SDS011;69622;49.570;10.986;2023-07-20T06:40:41;9.02;;;4.30;;
52136;SDS011;69622;49.570;10.986;2023-07-20T06:43:42;5.68;;;4.10;;
52136;SDS011;69622;49.570;10.986;2023-07-20T06:46:46;6.90;;;3.70;;
52136;SDS011;69622;49.570;10.986;2023-07-20T06:49:48;8.02;;;3.72;;
52136;SDS011;69622;49.570;10.986;2023-07-20T06:52:49;5.32;;;3.67;;
52136;SDS011;69622;49.570;10.986;2023-07-20T06:55:51;7.18;;;3.85;;
52136;SDS011;69622;49.570;10.986;2023-07-20T06:58:52;6.43;;;2.97;;
52136;SDS011;69622;49.570;10.986;2023-07-20T07:01:54;8.25;;;3.67;;
52136;SDS011;69622;49.570;10.986;2023-07-20T07:04:55;7.25;;;3.30;;
52136;SDS011;69622;49.570;10.986;2023-07-20T07:08:00;7.68;;;3.65;;
52136;SDS011;69622;49.570;10.986;2023-07-20T07:11:01;8.05;;;2.40;;
52136;SDS011;69622;49.570;10.986;2023-07-20T07:14:03;5.25;;;3.45;;
52136;SDS011;69622;49.570;10.986;2023-07-20T07:17:05;4.07;;;2.45;;
52136;SDS011;69622;49.570;10.986;2023-07-20T07:20:06;4.05;;;2.63;;
52136;SDS011;69622;49.570;10.986;2023-07-20T07:23:11;5.38;;;3.05;;
52136;SDS011;69622;49.570;10.986;2023-07-20T07:26:13;4.00;;;2.55;;
52136;SDS011;69622;49.570;10.986;2023-07-20T07:29:14;8.00;;;3.45;;
52136;SDS011;69622;49.570;10.986;2023-07-20T07:32:18;6.95;;;2.97;;
52136;SDS011;69622;49.570;10.986;2023-07-20T07:35:19;4.30;;;2.50;;
52136;SDS011;69622;49.570;10.986;2023-07-20T07:38:21;6.07;;;2.40;;
52136;SDS011;69622;49.570;10.986;2023-07-20T07:41:42;9.65;;;2.80;;
52136;SDS011;69622;49.570;10.986;2023-07-20T07:44:44;4.68;;;2.67;;
52136;SDS011;69622;49.570;10.986;2023-07-20T07:47:46;4.32;;;2.70;;
52136;SDS011;69622;49.570;10.986;2023-07-20T07:50:47;8.05;;;3.28;;
52136;SDS011;69622;49.570;10.986;2023-07-20T07:53:49;4.78;;;2.40;;
52136;SDS011;69622;49.570;10.986;2023-07-20T07:56:51;7.03;;;3.53;;
52136;SDS011;69622;49.570;10.986;2023-07-20T07:59:52;4.15;;;2.38;;
52136;SDS011;69622;49.570;10.986;2023-07-20T08:02:54;6.35;;;2.50;;
52136;SDS011;69622;49.570;10.986;2023-07-20T08:05:55;3.33;;;2.80;;
52136;SDS011;69622;49.570;10.986;2023-07-20T08:08:57;6.43;;;2.55;;
52136;SDS011;69622;49.570;10.986;2023-07-20T08:11:59;5.78;;;3.00;;
52136;SDS011;69622;49.570;10.986;2023-07-20T08:15:00;8.50;;;2.70;;
52136;SDS011;69622;49.570;10.986;2023-07-20T08:18:02;7.60;;;2.42;;
52136;SDS011;69622;49.570;10.986;2023-07-20T08:21:04;4.65;;;1.85;;
52136;SDS011;69622;49.570;10.986;2023-07-20T08:24:05;3.13;;;1.90;;
52136;SDS011;69622;49.570;10.986;2023-07-20T08:27:07;5.65;;;2.05;;
52136;SDS011;69622;49.570;10.986;2023-07-20T08:30:09;4.97;;;1.98;;
52136;SDS011;69622;49.570;10.986;2023-07-20T08:33:13;5.88;;;2.50;;
52136;SDS011;69622;49.570;10.986;2023-07-20T08:36:16;10.57;;;2.37;;
52136;SDS011;69622;49.570;10.986;2023-07-20T08:39:17;5.85;;;2.13;;
52136;SDS011;69622;49.570;10.986;2023-07-20T08:42:19;3.53;;;2.03;;
52136;SDS011;69622;49.570;10.986;2023-07-20T08:45:22;4.90;;;2.13;;
52136;SDS011;69622;49.570;10.986;2023-07-20T08:48:24;4.72;;;1.77;;
52136;SDS011;69622;49.570;10.986;2023-07-20T08:51:26;8.82;;;1.90;;
52136;SDS011;69622;49.570;10.986;2023-07-20T08:54:29;3.75;;;1.98;;
52136;SDS011;69622;49.570;10.986;2023-07-20T08:57:34;7.07;;;2.08;;
52136;SDS011;69622;49.570;10.986;2023-07-20T09:00:37;3.63;;;1.88;;
52136;SDS011;69622;49.570;10.986;2023-07-20T09:03:41;15.88;;;2.20;;
52136;SDS011;69622;49.570;10.986;2023-07-20T09:06:44;3.80;;;2.30;;
52136;SDS011;69622;49.570;10.986;2023-07-20T09:09:46;4.43;;;2.10;;
52136;SDS011;69622;49.570;10.986;2023-07-20T09:12:47;2.90;;;1.60;;
52136;SDS011;69622;49.570;10.986;2023-07-20T09:15:53;4.15;;;1.77;;
52136;SDS011;69622;49.570;10.986;2023-07-20T09:18:57;5.55;;;2.20;;
52136;SDS011;69622;49.570;10.986;2023-07-20T09:22:01;6.30;;;1.70;;
52136;SDS011;69622;49.570;10.986;2023-07-20T09:25:02;4.90;;;1.95;;
52136;SDS011;69622;49.570;10.986;2023-07-20T09:28:12;4.22;;;2.03;;
52136;SDS011;69622;49.570;10.986;2023-07-20T09:31:21;3.33;;;1.70;;
52136;SDS011;69622;49.570;10.986;2023-07-20T09:34:23;5.70;;;1.60;;
52136;SDS011;69622;49.570;10.986;2023-07-20T09:37:27;5.93;;;1.80;;
52136;SDS011;69622;49.570;10.986;2023-07-20T09:40:29;2.15;;;1.50;;
52136;SDS011;69622;49.570;10.986;2023-07-20T09:43:34;3.15;;;1.50;;
52136;SDS011;69622;49.570;10.986;2023-07-20T09:46:42;3.15;;;1.20;;
52136;SDS011;69622;49.570;10.986;2023-07-20T09:49:54;4.55;;;1.42;;
52136;SDS011;69622;49.570;10.986;2023-07-20T09:53:02;2.67;;;1.75;;
52136;SDS011;69622;49.570;10.986;2023-07-20T09:56:06;2.03;;;1.40;;
52136;SDS011;69622;49.570;10.986;2023-07-20T09:59:09;3.17;;;1.40;;
52136;SDS011;69622;49.570;10.986;2023-07-20T10:02:12;2.72;;;1.10;;
52136;SDS011;69622;49.570;10.986;2023-07-20T10:05:27;5.35;;;1.48;;
52136;SDS011;69622;49.570;10.986;2023-07-20T10:08:33;2.67;;;1.25;;
52136;SDS011;69622;49.570;10.986;2023-07-20T10:11:45;3.33;;;1.38;;
52136;SDS011;69622;49.570;10.986;2023-07-20T10:15:13;3.30;;;1.33;;
52136;SDS011;69622;49.570;10.986;2023-07-20T10:21:35;1.67;;;1.40;;
52136;SDS011;69622;49.570;10.986;2023-07-20T10:24:45;5.10;;;1.20;;
52136;SDS011;69622;49.570;10.986;2023-07-20T10:27:47;1.75;;;1.05;;
52136;SDS011;69622;49.570;10.986;2023-07-20T10:30:49;2.15;;;1.10;;
52136;SDS011;69622;49.570;10.986;2023-07-20T10:33:51;4.68;;;1.30;;
52136;SDS011;69622;49.570;10.986;2023-07-20T10:36:53;2.40;;;1.10;;
52136;SDS011;69622;49.570;10.986;2023-07-20T10:39:55;1.40;;;1.00;;
52136;SDS011;69622;49.570;10.986;2023-07-20T10:43:01;3.80;;;1.48;;
52136;SDS011;69622;49.570;10.986;2023-07-20T10:46:04;2.97;;;1.63;;
52136;SDS011;69622;49.570;10.986;2023-07-20T10:49:06;3.78;;;1.10;;
52136;SDS011;69622;49.570;10.986;2023-07-20T10:52:09;1.63;;;1.17;;
52136;SDS011;69622;49.570;10.986;2023-07-20T10:55:15;2.60;;;1.40;;
52136;SDS011;69622;49.570;10.986;2023-07-20T10:58:17;3.28;;;1.45;;
52136;SDS011;69622;49.570;10.986;2023-07-20T11:01:20;5.93;;;1.40;;
52136;SDS011;69622;49.570;10.986;2023-07-20T11:04:57;2.45;;;1.20;;
52136;SDS011;69622;49.570;10.986;2023-07-20T11:07:51;3.78;;;1.80;;
52136;SDS011;69622;49.570;10.986;2023-07-20T11:11:20;3.35;;;1.30;;
52136;SDS011;69622;49.570;10.986;2023-07-20T11:14:54;1.85;;;1.33;;
52136;SDS011;69622;49.570;10.986;2023-07-20T11:18:12;3.05;;;1.35;;
52136;SDS011;69622;49.570;10.986;2023-07-20T11:21:15;2.17;;;1.30;;
52136;SDS011;69622;49.570;10.986;2023-07-20T11:24:17;2.60;;;1.20;;
52136;SDS011;69622;49.570;10.986;2023-07-20T11:27:19;3.80;;;1.40;;
52136;SDS011;69622;49.570;10.986;2023-07-20T11:30:23;2.92;;;1.23;;
52136;SDS011;69622;49.570;10.986;2023-07-20T11:33:25;1.75;;;1.25;;
52136;SDS011;69622;49.570;10.986;2023-07-20T11:36:27;2.00;;;1.10;;
52136;SDS011;69622;49.570;10.986;2023-07-20T11:39:31;2.45;;;1.20;;
52136;SDS011;69622;49.570;10.986;2023-07-20T11:42:33;2.47;;;1.42;;
52136;SDS011;69622;49.570;10.986;2023-07-20T11:45:38;2.10;;;1.40;;
52136;SDS011;69622;49.570;10.986;2023-07-20T11:48:40;3.97;;;1.40;;
52136;SDS011;69622;49.570;10.986;2023-07-20T11:51:41;2.47;;;1.00;;
52136;SDS011;69622;49.570;10.986;2023-07-20T11:54:43;2.75;;;1.98;;
52136;SDS011;69622;49.570;10.986;2023-07-20T11:58:05;2.63;;;1.10;;
52136;SDS011;69622;49.570;10.986;2023-07-20T12:01:07;2.80;;;1.10;;
52136;SDS011;69622;49.570;10.986;2023-07-20T12:04:08;1.63;;;1.10;;
52136;SDS011;69622;49.570;10.986;2023-07-20T12:07:10;1.65;;;0.90;;
52136;SDS011;69622;49.570;10.986;2023-07-20T12:10:12;2.28;;;1.13;;
52136;SDS011;69622;49.570;10.986;2023-07-20T12:13:13;3.70;;;1.10;;
52136;SDS011;69622;49.570;10.986;2023-07-20T12:16:15;2.05;;;1.10;;
52136;SDS011;69622;49.570;10.986;2023-07-20T12:19:18;2.20;;;1.23;;
52136;SDS011;69622;49.570;10.986;2023-07-20T12:22:19;3.53;;;1.20;;
52136;SDS011;69622;49.570;10.986;2023-07-20T12:25:21;1.85;;;1.13;;
52136;SDS011;69622;49.570;10.986;2023-07-20T12:28:23;7.35;;;1.40;;
52136;SDS011;69622;49.570;10.986;2023-07-20T12:31:25;2.25;;;1.10;;
52136;SDS011;69622;49.570;10.986;2023-07-20T12:34:26;1.48;;;1.05;;
52136;SDS011;69622;49.570;10.986;2023-07-20T12:37:28;3.10;;;1.25;;
52136;SDS011;69622;49.570;10.986;2023-07-20T12:40:29;2.05;;;1.15;;
52136;SDS011;69622;49.570;10.986;2023-07-20T12:43:31;5.30;;;1.30;;
52136;SDS011;69622;49.570;10.986;2023-07-20T12:46:33;2.97;;;1.25;;
52136;SDS011;69622;49.570;10.986;2023-07-20T12:49:38;3.67;;;1.55;;
52136;SDS011;69622;49.570;10.986;2023-07-20T12:52:40;3.25;;;1.23;;
52136;SDS011;69622;49.570;10.986;2023-07-20T12:55:41;1.80;;;1.25;;
52136;SDS011;69622;49.570;10.986;2023-07-20T12:58:43;4.82;;;1.10;;
52136;SDS011;69622;49.570;10.986;2023-07-20T13:01:44;2.35;;;1.30;;
52136;SDS011;69622;49.570;10.986;2023-07-20T13:04:46;2.17;;;1.60;;
52136;SDS011;69622;49.570;10.986;2023-07-20T13:07:47;5.32;;;1.65;;
52136;SDS011;69622;49.570;10.986;2023-07-20T13:10:52;1.67;;;1.25;;
52136;SDS011;69622;49.570;10.986;2023-07-20T13:13:53;1.77;;;1.30;;
52136;SDS011;69622;49.570;10.986;2023-07-20T13:16:55;2.95;;;1.20;;
52136;SDS011;69622;49.570;10.986;2023-07-20T13:19:57;1.65;;;1.08;;
52136;SDS011;69622;49.570;10.986;2023-07-20T13:22:58;4.40;;;1.45;;
52136;SDS011;69622;49.570;10.986;2023-07-20T13:26:00;3.28;;;1.10;;
52136;SDS011;69622;49.570;10.986;2023-07-20T13:29:01;1.38;;;1.20;;
52136;SDS011;69622;49.570;10.986;2023-07-20T13:32:03;1.98;;;0.98;;
52136;SDS011;69622;49.570;10.986;2023-07-20T13:35:08;1.23;;;1.00;;
52136;SDS011;69622;49.570;10.986;2023-07-20T13:38:09;3.10;;;1.50;;
52136;SDS011;69622;49.570;10.986;2023-07-20T13:41:11;2.03;;;1.40;;
52136;SDS011;69622;49.570;10.986;2023-07-20T13:44:13;2.10;;;1.33;;
52136;SDS011;69622;49.570;10.986;2023-07-20T13:47:17;1.70;;;1.27;;
52136;SDS011;69622;49.570;10.986;2023-07-20T13:50:22;5.32;;;1.35;;
52136;SDS011;69622;49.570;10.986;2023-07-20T13:53:40;4.32;;;1.42;;
52136;SDS011;69622;49.570;10.986;2023-07-20T13:56:45;1.88;;;1.17;;
52136;SDS011;69622;49.570;10.986;2023-07-20T13:59:46;2.90;;;1.50;;
52136;SDS011;69622;49.570;10.986;2023-07-20T14:02:48;5.28;;;1.38;;
52136;SDS011;69622;49.570;10.986;2023-07-20T14:08:59;6.10;;;1.52;;
52136;SDS011;69622;49.570;10.986;2023-07-20T14:12:00;2.63;;;1.10;;
52136;SDS011;69622;49.570;10.986;2023-07-20T14:15:05;4.60;;;1.50;;
52136;SDS011;69622;49.570;10.986;2023-07-20T14:18:08;2.05;;;1.30;;
52136;SDS011;69622;49.570;10.986;2023-07-20T14:21:09;2.72;;;1.20;;
52136;SDS011;69622;49.570;10.986;2023-07-20T14:24:11;2.30;;;1.50;;
52136;SDS011;69622;49.570;10.986;2023-07-20T14:27:12;5.43;;;1.65;;
52136;SDS011;69622;49.570;10.986;2023-07-20T14:30:14;1.48;;;1.30;;
52136;SDS011;69622;49.570;10.986;2023-07-20T14:33:16;2.55;;;1.40;;
52136;SDS011;69622;49.570;10.986;2023-07-20T14:36:17;3.05;;;1.40;;
52136;SDS011;69622;49.570;10.986;2023-07-20T14:39:19;2.47;;;1.42;;
52136;SDS011;69622;49.570;10.986;2023-07-20T14:42:21;1.98;;;1.60;;
52136;SDS011;69622;49.570;10.986;2023-07-20T14:45:23;3.67;;;1.58;;
52136;SDS011;69622;49.570;10.986;2023-07-20T14:48:24;1.77;;;1.35;;
52136;SDS011;69622;49.570;10.986;2023-07-20T14:51:26;6.18;;;1.45;;
52136;SDS011;69622;49.570;10.986;2023-07-20T14:54:35;2.90;;;1.38;;
52136;SDS011;69622;49.570;10.986;2023-07-20T14:57:37;2.45;;;1.40;;
52136;SDS011;69622;49.570;10.986;2023-07-20T15:00:39;2.50;;;1.00;;
52136;SDS011;69622;49.570;10.986;2023-07-20T15:03:49;2.45;;;1.30;;
52136;SDS011;69622;49.570;10.986;2023-07-20T15:07:04;1.33;;;1.10;;
52136;SDS011;69622;49.570;10.986;2023-07-20T15:10:05;3.05;;;1.38;;
52136;SDS011;69622;49.570;10.986;2023-07-20T15:13:08;2.60;;;1.50;;
52136;SDS011;69622;49.570;10.986;2023-07-20T15:16:10;2.83;;;1.58;;
52136;SDS011;69622;49.570;10.986;2023-07-20T15:19:12;2.30;;;1.25;;
52136;SDS011;69622;49.570;10.986;2023-07-20T15:22:14;1.88;;;1.27;;
52136;SDS011;69622;49.570;10.986;2023-07-20T15:25:16;2.25;;;1.65;;
52136;SDS011;69622;49.570;10.986;2023-07-20T15:28:18;6.85;;;1.23;;
52136;SDS011;69622;49.570;10.986;2023-07-20T15:31:20;8.88;;;1.55;;
52136;SDS011;69622;49.570;10.986;2023-07-20T15:34:41;4.20;;;1.40;;
52136;SDS011;69622;49.570;10.986;2023-07-20T15:37:43;2.90;;;1.30;;
52136;SDS011;69622;49.570;10.986;2023-07-20T15:40:46;3.17;;;1.73;;
52136;SDS011;69622;49.570;10.986;2023-07-20T15:43:48;4.28;;;1.67;;
52136;SDS011;69622;49.570;10.986;2023-07-20T15:46:51;1.65;;;1.40;;
52136;SDS011;69622;49.570;10.986;2023-07-20T15:49:52;2.60;;;1.20;;
52136;SDS011;69622;49.570;10.986;2023-07-20T15:52:54;2.65;;;1.58;;
52136;SDS011;69622;49.570;10.986;2023-07-20T15:55:58;3.75;;;1.70;;
52136;SDS011;69622;49.570;10.986;2023-07-20T15:59:00;5.95;;;3.58;;
52136;SDS011;69622;49.570;10.986;2023-07-20T16:02:02;4.28;;;1.48;;
52136;SDS011;69622;49.570;10.986;2023-07-20T16:05:05;3.08;;;1.65;;
52136;SDS011;69622;49.570;10.986;2023-07-20T16:08:10;3.40;;;1.30;;
52136;SDS011;69622;49.570;10.986;2023-07-20T16:11:11;2.15;;;1.25;;
52136;SDS011;69622;49.570;10.986;2023-07-20T16:14:13;3.13;;;1.63;;
52136;SDS011;69622;49.570;10.986;2023-07-20T16:17:16;2.47;;;1.13;;
52136;SDS011;69622;49.570;10.986;2023-07-20T16:20:18;2.42;;;1.10;;
52136;SDS011;69622;49.570;10.986;2023-07-20T16:23:19;3.92;;;1.30;;
52136;SDS011;69622;49.570;10.986;2023-07-20T16:26:21;2.30;;;1.45;;
52136;SDS011;69622;49.570;10.986;2023-07-20T16:29:22;3.13;;;1.30;;
52136;SDS011;69622;49.570;10.986;2023-07-20T16:32:25;2.92;;;1.40;;
52136;SDS011;69622;49.570;10.986;2023-07-20T16:35:27;3.25;;;1.50;;
52136;SDS011;69622;49.570;10.986;2023-07-20T16:38:48;3.38;;;1.40;;
52136;SDS011;69622;49.570;10.986;2023-07-20T16:41:50;1.95;;;1.30;;
52136;SDS011;69622;49.570;10.986;2023-07-20T16:44:54;1.52;;;1.20;;
52136;SDS011;69622;49.570;10.986;2023-07-20T16:47:56;1.10;;;0.98;;
52136;SDS011;69622;49.570;10.986;2023-07-20T16:51:00;2.45;;;1.08;;
52136;SDS011;69622;49.570;10.986;2023-07-20T16:54:03;2.00;;;1.50;;
52136;SDS011;69622;49.570;10.986;2023-07-20T16:57:07;3.90;;;1.30;;
52136;SDS011;69622;49.570;10.986;2023-07-20T17:00:10;4.18;;;1.13;;
52136;SDS011;69622;49.570;10.986;2023-07-20T17:03:12;2.20;;;1.33;;
52136;SDS011;69622;49.570;10.986;2023-07-20T17:06:13;3.67;;;1.20;;
52136;SDS011;69622;49.570;10.986;2023-07-20T17:09:15;2.03;;;1.08;;
52136;SDS011;69622;49.570;10.986;2023-07-20T17:12:17;2.15;;;1.35;;
52136;SDS011;69622;49.570;10.986;2023-07-20T17:15:18;5.10;;;1.27;;
52136;SDS011;69622;49.570;10.986;2023-07-20T17:18:20;3.58;;;1.52;;
52136;SDS011;69622;49.570;10.986;2023-07-20T17:21:22;4.78;;;1.20;;
52136;SDS011;69622;49.570;10.986;2023-07-20T17:24:24;2.92;;;1.17;;
52136;SDS011;69622;49.570;10.986;2023-07-20T17:27:28;1.65;;;1.00;;
52136;SDS011;69622;49.570;10.986;2023-07-20T17:30:30;1.60;;;1.42;;
52136;SDS011;69622;49.570;10.986;2023-07-20T17:33:31;2.97;;;1.30;;
52136;SDS011;69622;49.570;10.986;2023-07-20T17:36:33;2.60;;;1.23;;
52136;SDS011;69622;49.570;10.986;2023-07-20T17:39:37;2.70;;;1.45;;
52136;SDS011;69622;49.570;10.986;2023-07-20T17:42:42;2.30;;;1.23;;
52136;SDS011;69622;49.570;10.986;2023-07-20T17:45:49;2.38;;;1.30;;
52136;SDS011;69622;49.570;10.986;2023-07-20T17:48:51;3.00;;;1.30;;
52136;SDS011;69622;49.570;10.986;2023-07-20T17:51:53;1.55;;;1.05;;
52136;SDS011;69622;49.570;10.986;2023-07-20T17:54:54;1.48;;;1.23;;
52136;SDS011;69622;49.570;10.986;2023-07-20T17:57:56;2.42;;;1.42;;
52136;SDS011;69622;49.570;10.986;2023-07-20T18:00:58;2.03;;;1.27;;
52136;SDS011;69622;49.570;10.986;2023-07-20T18:04:00;4.45;;;1.40;;
52136;SDS011;69622;49.570;10.986;2023-07-20T18:07:02;2.83;;;1.30;;
52136;SDS011;69622;49.570;10.986;2023-07-20T18:10:04;2.38;;;1.42;;
52136;SDS011;69622;49.570;10.986;2023-07-20T18:13:06;5.57;;;1.45;;
52136;SDS011;69622;49.570;10.986;2023-07-20T18:16:08;2.80;;;1.30;;
52136;SDS011;69622;49.570;10.986;2023-07-20T18:19:09;1.40;;;1.02;;
52136;SDS011;69622;49.570;10.986;2023-07-20T18:22:10;2.35;;;1.40;;
52136;SDS011;69622;49.570;10.986;2023-07-20T18:25:13;4.88;;;1.30;;